PGT87FD LTCB-LTFJ
Flight info
| Callsign | PGT87FD |
|---|---|
| Flight time | 1h 9m |
| Altitude | 34000 |
| Route | EMLAD1N EMLAD W71 TERME UW71 CRM DCT DEREL UT79 NAMAN NAMAN1H |
| Aircraft | A21N/M-SDE2E3FGHIRWXY/LB1 |
Departure
| Time | 2026-05-05 13:46 |
|---|---|
| Airport | Ordu–Giresun Airport (LTCB) |
Arrival
| Time | 2026-05-05 14:55 |
|---|---|
| Airport | Istanbul Sabiha Gökçen International Airport (LTFJ) |
| Time | Latitude | Longitude | Altitude | Speed | Heading |
|---|---|---|---|---|---|
| 2026-05-05 13:05 | 40.96454 | 38.08109 | 23 ft | 0 kts | 192° |
| 2026-05-05 13:34 | 40.96460 | 38.08110 | 24 ft | 4 kts | 191° |
| 2026-05-05 13:35 | 40.96487 | 38.08115 | 23 ft | 4 kts | 176° |
| 2026-05-05 13:35 | 40.96512 | 38.08107 | 24 ft | 4 kts | 146° |
| 2026-05-05 13:35 | 40.96525 | 38.08084 | 23 ft | 2 kts | 102° |
| 2026-05-05 13:35 | 40.96527 | 38.08077 | 23 ft | 0 kts | 101° |
| 2026-05-05 13:40 | 40.96526 | 38.08079 | 23 ft | 1 kts | 94° |
| 2026-05-05 13:40 | 40.96546 | 38.08083 | 23 ft | 5 kts | 339° |
| 2026-05-05 13:40 | 40.96585 | 38.08074 | 23 ft | 7 kts | 5° |
| 2026-05-05 13:41 | 40.96642 | 38.08091 | 26 ft | 10 kts | 13° |
| 2026-05-05 13:41 | 40.96721 | 38.08115 | 29 ft | 13 kts | 12° |
| 2026-05-05 13:41 | 40.96749 | 38.08221 | 29 ft | 15 kts | 103° |
| 2026-05-05 13:41 | 40.96723 | 38.08362 | 27 ft | 14 kts | 103° |
| 2026-05-05 13:42 | 40.96707 | 38.08458 | 27 ft | 12 kts | 102° |
| 2026-05-05 13:42 | 40.96690 | 38.08569 | 27 ft | 13 kts | 101° |
| 2026-05-05 13:42 | 40.96671 | 38.08699 | 25 ft | 16 kts | 101° |
| 2026-05-05 13:42 | 40.96647 | 38.08850 | 27 ft | 18 kts | 102° |
| 2026-05-05 13:43 | 40.96620 | 38.09018 | 26 ft | 19 kts | 102° |
| 2026-05-05 13:43 | 40.96591 | 38.09198 | 27 ft | 21 kts | 102° |
| 2026-05-05 13:43 | 40.96560 | 38.09394 | 29 ft | 23 kts | 102° |
| 2026-05-05 13:43 | 40.96527 | 38.09603 | 30 ft | 24 kts | 101° |
| 2026-05-05 13:44 | 40.96492 | 38.09825 | 29 ft | 25 kts | 102° |
| 2026-05-05 13:44 | 40.96456 | 38.10049 | 29 ft | 21 kts | 102° |
| 2026-05-05 13:44 | 40.96434 | 38.10195 | 28 ft | 12 kts | 93° |
| 2026-05-05 13:44 | 40.96453 | 38.10290 | 26 ft | 10 kts | 68° |
| 2026-05-05 13:45 | 40.96446 | 38.10366 | 27 ft | 8 kts | 146° |
| 2026-05-05 13:45 | 40.96409 | 38.10330 | 26 ft | 7 kts | 274° |
| 2026-05-05 13:45 | 40.96423 | 38.10257 | 27 ft | 9 kts | 282° |
| 2026-05-05 13:45 | 40.96439 | 38.10157 | 29 ft | 15 kts | 282° |
| 2026-05-05 13:46 | 40.96505 | 38.09743 | 30 ft | 81 kts | 282° |
| 2026-05-05 13:46 | 40.96664 | 38.08746 | 26 ft | 139 kts | 282° |
| 2026-05-05 13:46 | 40.96892 | 38.07319 | 192 ft | 168 kts | 282° |
| 2026-05-05 13:46 | 40.97177 | 38.05825 | 758 ft | 168 kts | 290° |
| 2026-05-05 13:47 | 40.97801 | 38.04502 | 1288 ft | 178 kts | 308° |
| 2026-05-05 13:47 | 40.98554 | 38.03092 | 1724 ft | 197 kts | 300° |
| 2026-05-05 13:47 | 40.99183 | 38.01391 | 2351 ft | 213 kts | 294° |
| 2026-05-05 13:47 | 40.99801 | 37.99511 | 2917 ft | 235 kts | 293° |
| 2026-05-05 13:48 | 41.00591 | 37.97511 | 3484 ft | 254 kts | 305° |
| 2026-05-05 13:48 | 41.01878 | 37.95863 | 4321 ft | 262 kts | 324° |
| 2026-05-05 13:48 | 41.03397 | 37.94500 | 5256 ft | 266 kts | 327° |
| 2026-05-05 13:48 | 41.04947 | 37.93133 | 6185 ft | 270 kts | 326° |
| 2026-05-05 13:49 | 41.06515 | 37.91728 | 7071 ft | 274 kts | 326° |
| 2026-05-05 13:49 | 41.08098 | 37.90294 | 7971 ft | 278 kts | 326° |
| 2026-05-05 13:49 | 41.09706 | 37.88830 | 8831 ft | 283 kts | 326° |
| 2026-05-05 13:49 | 41.11342 | 37.87340 | 9703 ft | 287 kts | 326° |
| 2026-05-05 13:50 | 41.13001 | 37.85826 | 10557 ft | 293 kts | 326° |
| 2026-05-05 13:50 | 41.14741 | 37.84237 | 10991 ft | 315 kts | 326° |
| 2026-05-05 13:50 | 41.16438 | 37.82302 | 11312 ft | 338 kts | 311° |
| 2026-05-05 13:50 | 41.17657 | 37.79556 | 11691 ft | 355 kts | 288° |
| 2026-05-05 13:51 | 41.18096 | 37.76323 | 12394 ft | 359 kts | 273° |
| 2026-05-05 13:51 | 41.18225 | 37.72991 | 13180 ft | 363 kts | 271° |
| 2026-05-05 13:51 | 41.18341 | 37.69626 | 13934 ft | 367 kts | 271° |
| 2026-05-05 13:51 | 41.18479 | 37.66228 | 14669 ft | 371 kts | 272° |
| 2026-05-05 13:52 | 41.18634 | 37.62785 | 15382 ft | 375 kts | 272° |
| 2026-05-05 13:52 | 41.18797 | 37.59313 | 16075 ft | 379 kts | 272° |
| 2026-05-05 13:52 | 41.18968 | 37.55803 | 16750 ft | 383 kts | 273° |
| 2026-05-05 13:52 | 41.19214 | 37.52265 | 17385 ft | 387 kts | 274° |
| 2026-05-05 13:53 | 41.19484 | 37.48689 | 17998 ft | 391 kts | 274° |
| 2026-05-05 13:53 | 41.19756 | 37.45084 | 18596 ft | 394 kts | 274° |
| 2026-05-05 13:53 | 41.20028 | 37.41447 | 19183 ft | 398 kts | 274° |
| 2026-05-05 13:53 | 41.20302 | 37.37774 | 19755 ft | 401 kts | 274° |
| 2026-05-05 13:54 | 41.20574 | 37.34082 | 20305 ft | 404 kts | 274° |
| 2026-05-05 13:54 | 41.20848 | 37.30349 | 20850 ft | 407 kts | 274° |
| 2026-05-05 13:54 | 41.21121 | 37.26596 | 21382 ft | 410 kts | 274° |
| 2026-05-05 13:54 | 41.21396 | 37.22810 | 21906 ft | 413 kts | 273° |
| 2026-05-05 13:55 | 41.21683 | 37.19003 | 22425 ft | 416 kts | 274° |
| 2026-05-05 13:55 | 41.21987 | 37.15165 | 22930 ft | 419 kts | 274° |
| 2026-05-05 13:55 | 41.22292 | 37.11310 | 23428 ft | 422 kts | 274° |
| 2026-05-05 13:55 | 41.22596 | 37.07416 | 23930 ft | 425 kts | 273° |
| 2026-05-05 13:56 | 41.22899 | 37.03504 | 24424 ft | 427 kts | 273° |
| 2026-05-05 13:56 | 41.23202 | 36.99568 | 24901 ft | 430 kts | 273° |
| 2026-05-05 13:56 | 41.23505 | 36.95610 | 25363 ft | 432 kts | 273° |
| 2026-05-05 13:56 | 41.23808 | 36.91629 | 25828 ft | 434 kts | 273° |
| 2026-05-05 13:57 | 41.24111 | 36.87617 | 26276 ft | 437 kts | 273° |
| 2026-05-05 13:57 | 41.24414 | 36.83585 | 26702 ft | 439 kts | 273° |
| 2026-05-05 13:57 | 41.24717 | 36.79538 | 27097 ft | 442 kts | 273° |
| 2026-05-05 13:57 | 41.25020 | 36.75468 | 27494 ft | 444 kts | 273° |
| 2026-05-05 13:58 | 41.25323 | 36.71377 | 27874 ft | 446 kts | 273° |
| 2026-05-05 13:58 | 41.25620 | 36.67313 | 28237 ft | 448 kts | 274° |
| 2026-05-05 13:58 | 41.25924 | 36.63181 | 28591 ft | 450 kts | 274° |
| 2026-05-05 13:58 | 41.26227 | 36.59032 | 28979 ft | 451 kts | 274° |
| 2026-05-05 13:59 | 41.26132 | 36.50769 | 29861 ft | 446 kts | 261° |
| 2026-05-05 13:59 | 41.25690 | 36.46686 | 30286 ft | 445 kts | 260° |
| 2026-05-05 14:00 | 41.24777 | 36.38550 | 31061 ft | 446 kts | 260° |
| 2026-05-05 14:00 | 41.24480 | 36.35852 | 31288 ft | 446 kts | 260° |
| 2026-05-05 14:00 | 41.23884 | 36.30393 | 31766 ft | 446 kts | 261° |
| 2026-05-05 14:00 | 41.23440 | 36.26316 | 32116 ft | 446 kts | 260° |
| 2026-05-05 14:01 | 41.22991 | 36.22239 | 32455 ft | 446 kts | 261° |
| 2026-05-05 14:01 | 41.22542 | 36.18160 | 32798 ft | 446 kts | 261° |
| 2026-05-05 14:01 | 41.22091 | 36.14082 | 33131 ft | 446 kts | 261° |
| 2026-05-05 14:01 | 41.21641 | 36.10009 | 33429 ft | 446 kts | 261° |
| 2026-05-05 14:02 | 41.21184 | 36.05924 | 33737 ft | 447 kts | 261° |
| 2026-05-05 14:02 | 41.20725 | 36.01816 | 33986 ft | 450 kts | 261° |
| 2026-05-05 14:02 | 41.19819 | 35.93617 | 34004 ft | 449 kts | 261° |
| 2026-05-05 14:03 | 41.18901 | 35.85404 | 33985 ft | 450 kts | 261° |
| 2026-05-05 14:03 | 41.17970 | 35.77188 | 33972 ft | 450 kts | 261° |
| 2026-05-05 14:04 | 41.17032 | 35.68977 | 33962 ft | 450 kts | 261° |
| 2026-05-05 14:04 | 41.16086 | 35.60775 | 33960 ft | 450 kts | 261° |
| 2026-05-05 14:05 | 41.15135 | 35.52566 | 33967 ft | 450 kts | 261° |
| 2026-05-05 14:05 | 41.14181 | 35.44366 | 33954 ft | 450 kts | 261° |
| 2026-05-05 14:06 | 41.13224 | 35.36206 | 33959 ft | 451 kts | 261° |
| 2026-05-05 14:06 | 41.12256 | 35.27998 | 33960 ft | 450 kts | 261° |
| 2026-05-05 14:07 | 41.11281 | 35.19793 | 33962 ft | 450 kts | 261° |
| 2026-05-05 14:07 | 41.10295 | 35.11594 | 33959 ft | 450 kts | 261° |
| 2026-05-05 14:08 | 41.09307 | 35.03390 | 33966 ft | 451 kts | 261° |
| 2026-05-05 14:08 | 41.08314 | 34.95180 | 33969 ft | 451 kts | 261° |
| 2026-05-05 14:09 | 41.07319 | 34.86978 | 33979 ft | 451 kts | 262° |
| 2026-05-05 14:09 | 41.06316 | 34.78770 | 33980 ft | 451 kts | 262° |
| 2026-05-05 14:10 | 41.05309 | 34.70564 | 33980 ft | 451 kts | 262° |
| 2026-05-05 14:10 | 41.04293 | 34.62355 | 33981 ft | 452 kts | 262° |
| 2026-05-05 14:11 | 41.03276 | 34.54206 | 33982 ft | 452 kts | 261° |
| 2026-05-05 14:11 | 41.02247 | 34.45988 | 33980 ft | 452 kts | 262° |
| 2026-05-05 14:12 | 41.01211 | 34.37779 | 33980 ft | 452 kts | 262° |
| 2026-05-05 14:12 | 41.00168 | 34.29563 | 33980 ft | 452 kts | 262° |
| 2026-05-05 14:13 | 40.99118 | 34.21354 | 33975 ft | 452 kts | 262° |
| 2026-05-05 14:13 | 40.98067 | 34.13139 | 33970 ft | 453 kts | 262° |
| 2026-05-05 14:14 | 40.97004 | 34.04930 | 33967 ft | 453 kts | 261° |
| 2026-05-05 14:14 | 40.96117 | 33.98104 | 33969 ft | 453 kts | 262° |
| 2026-05-05 14:15 | 40.95049 | 33.89892 | 33972 ft | 453 kts | 262° |
| 2026-05-05 14:15 | 40.93796 | 33.80352 | 33971 ft | 452 kts | 262° |
| 2026-05-05 14:16 | 40.92888 | 33.73484 | 33968 ft | 453 kts | 262° |
| 2026-05-05 14:16 | 40.91795 | 33.65282 | 33972 ft | 453 kts | 262° |
| 2026-05-05 14:17 | 40.90693 | 33.57092 | 33970 ft | 453 kts | 262° |
| 2026-05-05 14:17 | 40.89594 | 33.48898 | 33967 ft | 452 kts | 262° |
| 2026-05-05 14:18 | 40.88487 | 33.40725 | 33969 ft | 452 kts | 262° |
| 2026-05-05 14:18 | 40.87372 | 33.32560 | 33969 ft | 452 kts | 262° |
| 2026-05-05 14:19 | 40.86255 | 33.24390 | 33975 ft | 451 kts | 263° |
| 2026-05-05 14:19 | 40.85147 | 33.16240 | 33979 ft | 451 kts | 262° |
| 2026-05-05 14:20 | 40.84017 | 33.08083 | 33980 ft | 451 kts | 263° |
| 2026-05-05 14:20 | 40.82894 | 32.99986 | 33980 ft | 451 kts | 263° |
| 2026-05-05 14:21 | 40.81757 | 32.91850 | 33985 ft | 451 kts | 263° |
| 2026-05-05 14:21 | 40.80616 | 32.83723 | 33989 ft | 450 kts | 263° |
| 2026-05-05 14:22 | 40.79471 | 32.75598 | 33989 ft | 450 kts | 263° |
| 2026-05-05 14:22 | 40.78322 | 32.67486 | 33992 ft | 449 kts | 263° |
| 2026-05-05 14:23 | 40.77175 | 32.59421 | 33986 ft | 445 kts | 263° |
| 2026-05-05 14:23 | 40.76031 | 32.51444 | 33992 ft | 441 kts | 263° |
| 2026-05-05 14:24 | 40.74889 | 32.43482 | 34003 ft | 447 kts | 263° |
| 2026-05-05 14:24 | 40.73718 | 32.35409 | 34003 ft | 448 kts | 263° |
| 2026-05-05 14:25 | 40.72542 | 32.27346 | 34001 ft | 447 kts | 263° |
| 2026-05-05 14:25 | 40.71823 | 32.19284 | 34003 ft | 438 kts | 278° |
| 2026-05-05 14:26 | 40.72312 | 32.15354 | 34008 ft | 431 kts | 290° |
| 2026-05-05 14:26 | 40.73223 | 32.11609 | 34011 ft | 428 kts | 293° |
| 2026-05-05 14:26 | 40.75146 | 32.04227 | 34014 ft | 423 kts | 292° |
| 2026-05-05 14:27 | 40.77002 | 31.96861 | 34020 ft | 427 kts | 292° |
| 2026-05-05 14:27 | 40.78853 | 31.89408 | 34032 ft | 427 kts | 292° |
| 2026-05-05 14:28 | 40.80694 | 31.81968 | 34028 ft | 427 kts | 292° |
| 2026-05-05 14:28 | 40.81606 | 31.78268 | 33597 ft | 422 kts | 292° |
| 2026-05-05 14:28 | 40.82508 | 31.74608 | 32759 ft | 426 kts | 292° |
| 2026-05-05 14:29 | 40.83421 | 31.70884 | 32062 ft | 428 kts | 292° |
| 2026-05-05 14:29 | 40.84341 | 31.67147 | 31440 ft | 427 kts | 293° |
| 2026-05-05 14:29 | 40.85256 | 31.63426 | 30865 ft | 424 kts | 293° |
| 2026-05-05 14:29 | 40.86161 | 31.59738 | 30320 ft | 421 kts | 293° |
| 2026-05-05 14:30 | 40.87058 | 31.56070 | 29788 ft | 417 kts | 293° |
| 2026-05-05 14:30 | 40.87945 | 31.52442 | 29231 ft | 415 kts | 293° |
| 2026-05-05 14:30 | 40.88826 | 31.48826 | 28666 ft | 412 kts | 292° |
| 2026-05-05 14:30 | 40.89702 | 31.45229 | 28125 ft | 409 kts | 292° |
| 2026-05-05 14:31 | 40.90560 | 31.41655 | 27599 ft | 407 kts | 291° |
| 2026-05-05 14:31 | 40.91372 | 31.38075 | 27038 ft | 406 kts | 291° |
| 2026-05-05 14:31 | 40.92176 | 31.34506 | 26476 ft | 404 kts | 291° |
| 2026-05-05 14:31 | 40.92975 | 31.30947 | 25917 ft | 403 kts | 291° |
| 2026-05-05 14:32 | 40.93768 | 31.27402 | 25363 ft | 400 kts | 291° |
| 2026-05-05 14:32 | 40.94554 | 31.23886 | 24837 ft | 397 kts | 290° |
| 2026-05-05 14:32 | 40.95334 | 31.20393 | 24282 ft | 396 kts | 290° |
| 2026-05-05 14:32 | 40.96111 | 31.16912 | 23740 ft | 394 kts | 290° |
| 2026-05-05 14:33 | 40.96884 | 31.13444 | 23203 ft | 392 kts | 290° |
| 2026-05-05 14:33 | 40.97652 | 31.09994 | 22682 ft | 390 kts | 290° |
| 2026-05-05 14:33 | 40.98416 | 31.06558 | 22133 ft | 389 kts | 290° |
| 2026-05-05 14:33 | 40.99177 | 31.03125 | 21575 ft | 388 kts | 289° |
| 2026-05-05 14:34 | 40.99933 | 30.99703 | 21029 ft | 386 kts | 290° |
| 2026-05-05 14:34 | 41.00656 | 30.96322 | 20642 ft | 377 kts | 289° |
| 2026-05-05 14:34 | 41.01343 | 30.93002 | 20353 ft | 372 kts | 289° |
| 2026-05-05 14:34 | 41.02027 | 30.89702 | 20087 ft | 371 kts | 289° |
| 2026-05-05 14:35 | 41.02708 | 30.86413 | 19788 ft | 370 kts | 288° |
| 2026-05-05 14:35 | 41.03386 | 30.83148 | 19373 ft | 367 kts | 288° |
| 2026-05-05 14:35 | 41.04061 | 30.79895 | 18929 ft | 366 kts | 288° |
| 2026-05-05 14:35 | 41.04724 | 30.76700 | 18497 ft | 364 kts | 288° |
| 2026-05-05 14:36 | 41.05350 | 30.73443 | 18015 ft | 366 kts | 283° |
| 2026-05-05 14:36 | 41.05366 | 30.70092 | 17689 ft | 363 kts | 262° |
| 2026-05-05 14:36 | 41.04556 | 30.66968 | 17480 ft | 355 kts | 247° |
| 2026-05-05 14:36 | 41.03476 | 30.64087 | 17315 ft | 343 kts | 246° |
| 2026-05-05 14:37 | 41.02438 | 30.61292 | 17101 ft | 334 kts | 247° |
| 2026-05-05 14:37 | 41.01457 | 30.58525 | 16651 ft | 332 kts | 248° |
| 2026-05-05 14:37 | 41.00502 | 30.55752 | 16186 ft | 331 kts | 248° |
| 2026-05-05 14:37 | 40.99561 | 30.52988 | 15803 ft | 328 kts | 248° |
| 2026-05-05 14:38 | 40.98555 | 30.50289 | 15380 ft | 326 kts | 239° |
| 2026-05-05 14:38 | 40.97011 | 30.48116 | 14949 ft | 327 kts | 215° |
| 2026-05-05 14:38 | 40.94990 | 30.46771 | 14550 ft | 324 kts | 202° |
| 2026-05-05 14:38 | 40.92880 | 30.45628 | 14194 ft | 343 kts | 207° |
| 2026-05-05 14:39 | 40.90962 | 30.43698 | 13906 ft | 349 kts | 230° |
| 2026-05-05 14:39 | 40.89722 | 30.40985 | 13646 ft | 345 kts | 252° |
| 2026-05-05 14:39 | 40.89352 | 30.37902 | 13399 ft | 340 kts | 274° |
| 2026-05-05 14:39 | 40.89894 | 30.34904 | 13185 ft | 336 kts | 294° |
| 2026-05-05 14:40 | 40.90911 | 30.32133 | 12990 ft | 334 kts | 298° |
| 2026-05-05 14:40 | 40.91945 | 30.29392 | 12787 ft | 333 kts | 297° |
| 2026-05-05 14:40 | 40.92951 | 30.26631 | 12589 ft | 332 kts | 296° |
| 2026-05-05 14:40 | 40.93937 | 30.23869 | 12384 ft | 332 kts | 297° |
| 2026-05-05 14:41 | 40.95208 | 30.21353 | 12178 ft | 329 kts | 315° |
| 2026-05-05 14:41 | 40.97085 | 30.19664 | 11964 ft | 328 kts | 338° |
| 2026-05-05 14:41 | 40.99315 | 30.19112 | 11773 ft | 327 kts | 0° |
| 2026-05-05 14:41 | 41.01584 | 30.19317 | 11585 ft | 327 kts | 5° |
| 2026-05-05 14:42 | 41.03840 | 30.19609 | 11387 ft | 325 kts | 5° |
| 2026-05-05 14:42 | 41.06088 | 30.19864 | 11184 ft | 324 kts | 2° |
| 2026-05-05 14:42 | 41.08324 | 30.19635 | 11009 ft | 322 kts | 349° |
| 2026-05-05 14:42 | 41.10483 | 30.19013 | 10866 ft | 312 kts | 347° |
| 2026-05-05 14:43 | 41.12552 | 30.18372 | 10723 ft | 299 kts | 347° |
| 2026-05-05 14:43 | 41.14542 | 30.17758 | 10591 ft | 288 kts | 347° |
| 2026-05-05 14:43 | 41.16377 | 30.16840 | 10388 ft | 279 kts | 329° |
| 2026-05-05 14:43 | 41.17816 | 30.15165 | 10097 ft | 274 kts | 308° |
| 2026-05-05 14:44 | 41.18714 | 30.12957 | 9758 ft | 272 kts | 289° |
| 2026-05-05 14:44 | 41.18988 | 30.10480 | 9427 ft | 274 kts | 269° |
| 2026-05-05 14:44 | 41.18613 | 30.08001 | 9098 ft | 276 kts | 250° |
| 2026-05-05 14:44 | 41.17776 | 30.05705 | 8796 ft | 277 kts | 243° |
| 2026-05-05 14:45 | 41.16882 | 30.03485 | 8494 ft | 276 kts | 244° |
| 2026-05-05 14:45 | 41.15976 | 30.01192 | 8181 ft | 277 kts | 244° |
| 2026-05-05 14:45 | 41.15109 | 29.98957 | 7888 ft | 276 kts | 244° |
| 2026-05-05 14:45 | 41.14242 | 29.96691 | 7602 ft | 275 kts | 245° |
| 2026-05-05 14:46 | 41.13382 | 29.94426 | 7304 ft | 275 kts | 245° |
| 2026-05-05 14:46 | 41.12523 | 29.92158 | 6990 ft | 275 kts | 245° |
| 2026-05-05 14:46 | 41.11662 | 29.89882 | 6686 ft | 275 kts | 245° |
| 2026-05-05 14:46 | 41.10810 | 29.87628 | 6373 ft | 273 kts | 245° |
| 2026-05-05 14:47 | 41.09965 | 29.85374 | 6071 ft | 272 kts | 245° |
| 2026-05-05 14:47 | 41.09113 | 29.83120 | 5767 ft | 275 kts | 245° |
| 2026-05-05 14:47 | 41.08259 | 29.80870 | 5468 ft | 273 kts | 245° |
| 2026-05-05 14:47 | 41.07418 | 29.78642 | 5212 ft | 267 kts | 245° |
| 2026-05-05 14:48 | 41.06599 | 29.76485 | 5056 ft | 257 kts | 245° |
| 2026-05-05 14:48 | 41.05813 | 29.74421 | 4965 ft | 245 kts | 245° |
| 2026-05-05 14:48 | 41.05064 | 29.72452 | 4816 ft | 235 kts | 245° |
| 2026-05-05 14:48 | 41.04338 | 29.70528 | 4510 ft | 232 kts | 245° |
| 2026-05-05 14:49 | 41.03631 | 29.68612 | 4196 ft | 232 kts | 245° |
| 2026-05-05 14:49 | 41.02929 | 29.66687 | 3886 ft | 231 kts | 245° |
| 2026-05-05 14:49 | 41.02233 | 29.64780 | 3573 ft | 230 kts | 245° |
| 2026-05-05 14:49 | 41.01537 | 29.62872 | 3476 ft | 230 kts | 245° |
| 2026-05-05 14:50 | 41.00854 | 29.61005 | 3463 ft | 217 kts | 245° |
| 2026-05-05 14:50 | 41.00218 | 29.59262 | 3460 ft | 208 kts | 245° |
| 2026-05-05 14:50 | 40.99589 | 29.57539 | 3469 ft | 208 kts | 246° |
| 2026-05-05 14:50 | 40.98960 | 29.55820 | 3485 ft | 208 kts | 246° |
| 2026-05-05 14:51 | 40.98330 | 29.54095 | 3489 ft | 209 kts | 245° |
| 2026-05-05 14:51 | 40.97703 | 29.52382 | 3488 ft | 199 kts | 246° |
| 2026-05-05 14:51 | 40.97118 | 29.50781 | 3538 ft | 192 kts | 246° |
| 2026-05-05 14:51 | 40.96540 | 29.49198 | 3455 ft | 190 kts | 245° |
| 2026-05-05 14:52 | 40.95967 | 29.47630 | 3206 ft | 188 kts | 246° |
| 2026-05-05 14:52 | 40.95406 | 29.46097 | 2927 ft | 184 kts | 246° |
| 2026-05-05 14:52 | 40.94851 | 29.44581 | 2639 ft | 182 kts | 246° |
| 2026-05-05 14:52 | 40.94311 | 29.43109 | 2386 ft | 176 kts | 246° |
| 2026-05-05 14:53 | 40.93797 | 29.41680 | 2107 ft | 165 kts | 246° |
| 2026-05-05 14:53 | 40.93327 | 29.40417 | 1845 ft | 146 kts | 244° |
| 2026-05-05 14:53 | 40.92879 | 29.39213 | 1625 ft | 146 kts | 246° |
| 2026-05-05 14:53 | 40.92448 | 29.38003 | 1404 ft | 145 kts | 246° |
| 2026-05-05 14:54 | 40.92002 | 29.36809 | 1186 ft | 144 kts | 245° |
| 2026-05-05 14:54 | 40.91574 | 29.35616 | 945 ft | 143 kts | 245° |
| 2026-05-05 14:54 | 40.91137 | 29.34428 | 716 ft | 144 kts | 245° |
| 2026-05-05 14:54 | 40.90711 | 29.33247 | 499 ft | 141 kts | 244° |
| 2026-05-05 14:55 | 40.90282 | 29.32082 | 324 ft | 137 kts | 245° |
| 2026-05-05 14:55 | 40.89913 | 29.31081 | 316 ft | 100 kts | 244° |
| 2026-05-05 14:55 | 40.89684 | 29.30457 | 316 ft | 52 kts | 244° |
| 2026-05-05 14:55 | 40.89576 | 29.30165 | 313 ft | 32 kts | 244° |
| 2026-05-05 14:56 | 40.89478 | 29.29897 | 312 ft | 33 kts | 244° |
| 2026-05-05 14:56 | 40.89375 | 29.29618 | 312 ft | 33 kts | 244° |
| 2026-05-05 14:56 | 40.89310 | 29.29442 | 309 ft | 18 kts | 244° |
| 2026-05-05 14:56 | 40.89300 | 29.29323 | 308 ft | 13 kts | 303° |
| 2026-05-05 14:57 | 40.89390 | 29.29260 | 309 ft | 16 kts | 338° |
| 2026-05-05 14:57 | 40.89474 | 29.29307 | 308 ft | 13 kts | 66° |
| 2026-05-05 14:57 | 40.89512 | 29.29418 | 308 ft | 14 kts | 65° |
| 2026-05-05 14:57 | 40.89559 | 29.29545 | 309 ft | 16 kts | 64° |
| 2026-05-05 14:58 | 40.89611 | 29.29687 | 310 ft | 18 kts | 64° |
| 2026-05-05 14:58 | 40.89660 | 29.29821 | 312 ft | 14 kts | 64° |
| 2026-05-05 14:58 | 40.89706 | 29.29945 | 311 ft | 16 kts | 64° |
| 2026-05-05 14:58 | 40.89760 | 29.30091 | 313 ft | 19 kts | 64° |
| 2026-05-05 14:59 | 40.89820 | 29.30257 | 314 ft | 21 kts | 64° |
| 2026-05-05 14:59 | 40.89887 | 29.30438 | 316 ft | 23 kts | 64° |
| 2026-05-05 14:59 | 40.89957 | 29.30625 | 316 ft | 19 kts | 64° |
| 2026-05-05 14:59 | 40.90016 | 29.30787 | 314 ft | 20 kts | 64° |
| 2026-05-05 15:00 | 40.90068 | 29.30928 | 316 ft | 10 kts | 63° |
| 2026-05-05 15:00 | 40.90113 | 29.30938 | 316 ft | 12 kts | 335° |
| 2026-05-05 15:00 | 40.90219 | 29.30873 | 316 ft | 11 kts | 355° |
| 2026-05-05 15:00 | 40.90263 | 29.30932 | 316 ft | 10 kts | 64° |
| 2026-05-05 15:01 | 40.90296 | 29.31022 | 316 ft | 12 kts | 64° |
| 2026-05-05 15:01 | 40.90336 | 29.31131 | 316 ft | 14 kts | 64° |
| 2026-05-05 15:01 | 40.90383 | 29.31256 | 316 ft | 16 kts | 64° |
| 2026-05-05 15:01 | 40.90434 | 29.31394 | 316 ft | 17 kts | 64° |
| 2026-05-05 15:02 | 40.90481 | 29.31523 | 316 ft | 15 kts | 64° |
| 2026-05-05 15:02 | 40.90519 | 29.31626 | 315 ft | 13 kts | 64° |
| 2026-05-05 15:02 | 40.90550 | 29.31689 | 314 ft | 7 kts | 6° |
| 2026-05-05 15:02 | 40.90595 | 29.31675 | 316 ft | 6 kts | 336° |
| 2026-05-05 15:03 | 40.90609 | 29.31667 | 316 ft | 3 kts | 334° |
| 2026-05-05 15:03 | 40.90628 | 29.31654 | 316 ft | 3 kts | 333° |
| 2026-05-05 15:03 | 40.90633 | 29.31651 | 316 ft | 0 kts | 334° |